createdAt,value
2022-08-03T00:00:26.330Z,98606.00
2022-08-03T00:02:53.693Z,98597.25
2022-08-03T00:05:20.846Z,98601.88
2022-08-03T00:07:48.442Z,98599.22
2022-08-03T00:10:16.631Z,98605.50
2022-08-03T00:12:43.680Z,98602.88
2022-08-03T00:15:15.178Z,98601.22
2022-08-03T00:17:52.414Z,98600.41
2022-08-03T00:20:20.903Z,98606.66
2022-08-03T00:22:47.941Z,98604.03
2022-08-03T00:25:14.979Z,98608.47
2022-08-03T00:27:42.025Z,98618.22
2022-08-03T00:30:09.121Z,98616.56
2022-08-03T00:32:36.224Z,98614.09
2022-08-03T00:35:08.421Z,98618.53
2022-08-03T00:37:41.271Z,98610.81
2022-08-03T00:40:08.955Z,98610.00
2022-08-03T00:42:36.005Z,98617.91
2022-08-03T00:45:03.049Z,98615.41
2022-08-03T00:47:30.101Z,98611.97
2022-08-03T00:49:57.177Z,98612.78
2022-08-03T00:52:24.223Z,98606.88
2022-08-03T00:54:51.263Z,98612.16
2022-08-03T00:57:18.333Z,98609.50
2022-08-03T00:59:45.452Z,98609.66
2022-08-03T01:02:12.484Z,98613.13
2022-08-03T01:04:39.532Z,98607.19
2022-08-03T01:07:10.961Z,98612.47
2022-08-03T01:09:38.283Z,98612.63
2022-08-03T01:12:05.315Z,98612.63
2022-08-03T01:14:32.359Z,98612.78
2022-08-03T01:17:00.862Z,98612.78
2022-08-03T01:19:27.902Z,98613.78
2022-08-03T01:21:54.953Z,98612.97
2022-08-03T01:24:22.212Z,98617.41
2022-08-03T01:26:49.249Z,98617.41
2022-08-03T01:29:16.286Z,98612.28
2022-08-03T01:32:53.268Z,98614.28
2022-08-03T01:34:30.361Z,98610.84
2022-08-03T01:36:57.403Z,98602.94
2022-08-03T01:39:24.475Z,98610.97
2022-08-03T01:41:51.518Z,98609.16
2022-08-03T01:44:29.112Z,98604.22
2022-08-03T01:46:57.723Z,98601.59
2022-08-03T01:49:24.796Z,98598.13
2022-08-03T01:52:03.429Z,98599.13
2022-08-03T01:54:32.225Z,98604.41
2022-08-03T01:56:59.286Z,98600.13
2022-08-03T01:59:26.393Z,98595.81
2022-08-03T02:02:16.041Z,98596.81
2022-08-03T02:04:40.564Z,98592.56
2022-08-03T02:07:07.627Z,98593.56
2022-08-03T02:09:34.682Z,98598.81
2022-08-03T02:12:01.910Z,98596.34
2022-08-03T02:14:28.958Z,98598.16
2022-08-03T02:16:56.012Z,98592.06
2022-08-03T02:19:23.102Z,98593.06
2022-08-03T02:21:57.172Z,98586.97
2022-08-03T02:24:28.504Z,98591.41
2022-08-03T02:26:56.901Z,98592.41
2022-08-03T02:29:40.109Z,98597.66
2022-08-03T02:32:08.499Z,98595.22
2022-08-03T02:34:35.565Z,98587.31
2022-08-03T02:37:03.267Z,98591.75
2022-08-03T02:39:30.327Z,98589.28
2022-08-03T02:42:02.247Z,98588.44
2022-08-03T02:44:30.402Z,98586.81
2022-08-03T02:46:57.435Z,98586.00
2022-08-03T02:49:42.138Z,98579.06
2022-08-03T02:52:13.204Z,98571.16
2022-08-03T02:54:42.987Z,98571.31
2022-08-03T02:57:10.079Z,98580.06
2022-08-03T02:59:37.142Z,98575.78
2022-08-03T03:02:04.242Z,98577.59
2022-08-03T03:04:33.179Z,98581.06
2022-08-03T03:07:01.859Z,98582.19
2022-08-03T03:09:40.427Z,98586.66
2022-08-03T03:12:08.644Z,98589.28
2022-08-03T03:14:35.690Z,98591.09
2022-08-03T03:17:02.836Z,98592.91
2022-08-03T03:19:30.458Z,98591.25
2022-08-03T03:21:57.519Z,98593.25
2022-08-03T03:24:24.591Z,98591.63
2022-08-03T03:26:51.634Z,98592.59
2022-08-03T03:29:18.724Z,98589.13
2022-08-03T03:31:45.769Z,98590.94
2022-08-03T03:34:12.813Z,98597.22
2022-08-03T03:36:39.861Z,98591.28
2022-08-03T03:39:15.904Z,98593.91
2022-08-03T03:41:43.215Z,98593.09
2022-08-03T03:44:10.267Z,98591.44
2022-08-03T03:46:37.299Z,98593.25
2022-08-03T03:49:04.349Z,98600.34
2022-08-03T03:51:31.512Z,98596.91
2022-08-03T03:53:58.554Z,98595.22
2022-08-03T03:56:25.649Z,98599.69
2022-08-03T03:58:52.675Z,98601.50
2022-08-03T04:01:19.800Z,98592.78
2022-08-03T04:03:46.874Z,98605.13
2022-08-03T04:06:32.699Z,98606.09
2022-08-03T04:09:23.034Z,98598.38
2022-08-03T04:11:50.111Z,98597.56
2022-08-03T04:14:17.170Z,98598.53
2022-08-03T04:16:44.333Z,98599.38
2022-08-03T04:19:11.385Z,98599.50
2022-08-03T04:21:38.481Z,98603.97
2022-08-03T04:24:06.062Z,98602.50
2022-08-03T04:26:33.139Z,98606.78
2022-08-03T04:29:00.951Z,98611.22
2022-08-03T04:31:27.998Z,98615.69
2022-08-03T04:33:55.050Z,98607.91
2022-08-03T04:36:22.103Z,98611.38
2022-08-03T04:38:49.146Z,98607.09
2022-08-03T04:41:16.186Z,98610.72
2022-08-03T04:43:43.341Z,98612.56
2022-08-03T04:46:10.420Z,98615.19
2022-08-03T04:48:37.532Z,98617.97
2022-08-03T04:51:04.653Z,98612.69
2022-08-03T04:53:31.736Z,98621.59
2022-08-03T04:55:58.805Z,98618.13
2022-08-03T04:58:28.618Z,98619.97
2022-08-03T05:01:11.047Z,98620.09
2022-08-03T05:03:38.178Z,98618.28
2022-08-03T05:06:10.968Z,98618.28
2022-08-03T05:08:46.286Z,98617.47
2022-08-03T05:11:14.291Z,98621.91
2022-08-03T05:13:41.354Z,98626.38
2022-08-03T05:16:08.434Z,98625.50
2022-08-03T05:18:35.990Z,98628.16
2022-08-03T05:21:03.137Z,98629.16
2022-08-03T05:23:30.184Z,98633.56
2022-08-03T05:25:57.260Z,98634.56
2022-08-03T05:28:24.366Z,98639.00
2022-08-03T05:30:51.411Z,98642.47
2022-08-03T05:33:18.450Z,98637.19
2022-08-03T05:35:55.667Z,98642.63
2022-08-03T05:38:34.592Z,98644.47
2022-08-03T05:41:22.856Z,98645.28
2022-08-03T05:43:49.346Z,98638.34
2022-08-03T05:46:16.533Z,98632.25
2022-08-03T05:48:43.602Z,98642.78
2022-08-03T05:51:13.746Z,98643.59
2022-08-03T05:53:40.876Z,98643.78
2022-08-03T05:56:14.220Z,98640.16
2022-08-03T05:58:42.580Z,98641.16
2022-08-03T06:01:09.716Z,98640.31
2022-08-03T06:03:36.797Z,98638.69
2022-08-03T06:06:03.914Z,98643.78
2022-08-03T06:08:31.059Z,98641.16
2022-08-03T06:10:58.109Z,98644.78
2022-08-03T06:13:25.215Z,98643.97
2022-08-03T06:15:52.299Z,98641.16
2022-08-03T06:18:19.596Z,98643.09
2022-08-03T06:20:47.205Z,98643.97
2022-08-03T06:23:18.078Z,98635.06
2022-08-03T06:25:45.886Z,98638.69
2022-08-03T06:28:42.387Z,98639.50
2022-08-03T06:31:01.417Z,98640.31
2022-08-03T06:34:30.166Z,98644.59
2022-08-03T06:36:15.832Z,98639.34
2022-08-03T06:38:42.876Z,98641.81
2022-08-03T06:41:09.926Z,98636.56
2022-08-03T06:43:38.151Z,98632.91
2022-08-03T06:46:24.830Z,98637.19
2022-08-03T06:48:53.401Z,98632.75
2022-08-03T06:51:20.484Z,98640.66
2022-08-03T06:53:47.535Z,98640.50
2022-08-03T06:56:14.647Z,98639.53
2022-08-03T06:58:41.706Z,98640.34
2022-08-03T07:01:08.862Z,98643.66
2022-08-03T07:03:36.171Z,98641.03
2022-08-03T07:06:19.127Z,98646.13
2022-08-03T07:08:48.522Z,98638.22
2022-08-03T07:11:18.583Z,98643.31
2022-08-03T07:13:45.659Z,98642.34
2022-08-03T07:16:12.733Z,98636.09
2022-08-03T07:18:39.883Z,98635.09
2022-08-03T07:21:09.184Z,98640.03
2022-08-03T07:23:36.239Z,98638.22
2022-08-03T07:26:03.327Z,98634.59
2022-08-03T07:28:30.379Z,98633.63
2022-08-03T07:30:57.408Z,98637.91
2022-08-03T07:33:24.458Z,98640.22
2022-08-03T07:35:51.502Z,98634.75
2022-08-03T07:38:21.090Z,98637.25
2022-08-03T07:40:48.379Z,98637.56
2022-08-03T07:43:15.493Z,98639.34
2022-08-03T07:45:42.551Z,98635.25
2022-08-03T07:48:12.350Z,98635.75
2022-08-03T07:50:39.803Z,98631.78
2022-08-03T07:53:06.880Z,98633.09
2022-08-03T07:55:35.158Z,98627.47
2022-08-03T07:58:02.305Z,98625.97
2022-08-03T08:00:29.357Z,98620.38
2022-08-03T08:02:56.426Z,98625.34
2022-08-03T08:05:23.483Z,98619.72
2022-08-03T08:07:50.738Z,98621.19
2022-08-03T08:10:18.928Z,98623.50
2022-08-03T08:12:46.117Z,98621.34
2022-08-03T08:15:13.191Z,98613.25
2022-08-03T08:17:40.235Z,98612.91
2022-08-03T08:20:07.276Z,98619.66
2022-08-03T08:22:36.038Z,98620.31
2022-08-03T08:25:04.579Z,98612.06
2022-08-03T08:28:29.417Z,98605.81
2022-08-03T08:30:21.895Z,98609.75
2022-08-03T08:32:49.032Z,98606.09
2022-08-03T08:35:16.157Z,98605.91
2022-08-03T08:37:43.494Z,98606.72
2022-08-03T08:40:18.258Z,98607.41
2022-08-03T08:42:57.955Z,98606.25
2022-08-03T08:45:25.685Z,98603.41
2022-08-03T08:47:55.706Z,98605.06
2022-08-03T08:50:27.884Z,98604.09
2022-08-03T08:52:55.423Z,98606.53
2022-08-03T08:55:22.518Z,98601.06
2022-08-03T08:57:49.675Z,98597.47
2022-08-03T09:00:17.157Z,98599.09
2022-08-03T09:02:44.422Z,98595.63
2022-08-03T09:05:13.088Z,98595.13
2022-08-03T09:07:40.275Z,98587.50
2022-08-03T09:10:12.959Z,98584.69
2022-08-03T09:12:42.340Z,98588.97
2022-08-03T09:15:17.027Z,98587.00
2022-08-03T09:17:48.871Z,98593.56
2022-08-03T09:20:17.904Z,98586.97
2022-08-03T09:22:44.970Z,98585.63
2022-08-03T09:25:24.362Z,98581.97
2022-08-03T09:27:51.932Z,98590.38
2022-08-03T09:30:34.611Z,98579.66
2022-08-03T09:33:02.577Z,98579.66
2022-08-03T09:35:53.653Z,98580.28
2022-08-03T09:38:16.742Z,98578.13
2022-08-03T09:40:43.799Z,98578.94
2022-08-03T09:43:10.914Z,98575.75
2022-08-03T09:45:37.985Z,98578.25
2022-08-03T09:48:05.068Z,98573.78
2022-08-03T09:50:32.138Z,98580.53
2022-08-03T09:52:59.207Z,98583.19
2022-08-03T09:56:34.217Z,98576.22
2022-08-03T09:58:14.360Z,98576.88
2022-08-03T10:00:41.456Z,98574.06
2022-08-03T10:03:08.569Z,98575.06
2022-08-03T10:05:35.646Z,98568.78
2022-08-03T10:08:02.704Z,98566.13
2022-08-03T10:10:31.504Z,98561.66
2022-08-03T10:12:59.446Z,98565.97
2022-08-03T10:16:21.520Z,98559.88
2022-08-03T10:18:13.639Z,98553.59
2022-08-03T10:20:40.671Z,98556.03
2022-08-03T10:23:07.757Z,98557.88
2022-08-03T10:25:35.323Z,98553.41
2022-08-03T10:28:04.335Z,98554.22
2022-08-03T10:30:32.184Z,98547.75
2022-08-03T10:32:59.233Z,98547.41
2022-08-03T10:35:26.294Z,98548.03
2022-08-03T10:37:57.102Z,98549.06
2022-08-03T10:40:47.539Z,98552.50
2022-08-03T10:43:11.537Z,98550.69
2022-08-03T10:45:38.595Z,98541.31
2022-08-03T10:48:05.645Z,98540.31
2022-08-03T10:50:32.708Z,98534.00
2022-08-03T10:53:03.770Z,98529.75
2022-08-03T10:55:49.879Z,98526.28
2022-08-03T10:58:30.304Z,98527.91
2022-08-03T11:00:58.020Z,98528.72
2022-08-03T11:03:25.203Z,98521.63
2022-08-03T11:05:54.508Z,98528.72
2022-08-03T11:08:21.591Z,98526.09
2022-08-03T11:10:48.636Z,98521.47
2022-08-03T11:13:16.911Z,98517.81
2022-08-03T11:15:44.081Z,98511.53
2022-08-03T11:18:11.519Z,98513.19
2022-08-03T11:20:38.671Z,98509.53
2022-08-03T11:23:06.712Z,98511.16
2022-08-03T11:25:52.972Z,98511.16
2022-08-03T11:28:20.817Z,98503.06
2022-08-03T11:30:48.629Z,98505.72
2022-08-03T11:33:15.678Z,98501.25
2022-08-03T11:35:45.551Z,98493.31
2022-08-03T11:38:12.682Z,98496.78
2022-08-03T11:40:39.844Z,98500.06
2022-08-03T11:43:07.292Z,98496.44
2022-08-03T11:45:34.351Z,98492.78
2022-08-03T11:48:01.395Z,98488.31
2022-08-03T11:50:28.458Z,98486.47
2022-08-03T11:52:55.590Z,98488.13
2022-08-03T11:55:22.727Z,98484.50
2022-08-03T11:59:19.212Z,98486.94
2022-08-03T12:00:36.878Z,98482.47
2022-08-03T12:03:04.100Z,98476.38
2022-08-03T12:05:31.210Z,98484.16
2022-08-03T12:08:04.100Z,98480.50
2022-08-03T12:10:33.473Z,98483.75
2022-08-03T12:13:00.515Z,98486.25
2022-08-03T12:15:27.734Z,98472.19
2022-08-03T12:17:57.847Z,98462.44
2022-08-03T12:20:34.578Z,98469.41
2022-08-03T12:23:02.379Z,98478.31
2022-08-03T12:25:39.204Z,98466.75
2022-08-03T12:28:07.048Z,98468.38
2022-08-03T12:30:54.971Z,98472.50
2022-08-03T12:33:22.226Z,98460.31
2022-08-03T12:35:52.557Z,98461.72
2022-08-03T12:38:21.371Z,98452.00
2022-08-03T12:40:50.767Z,98449.38
2022-08-03T12:43:17.816Z,98448.34
2022-08-03T12:45:44.941Z,98461.38
2022-08-03T12:48:12.052Z,98454.09
2022-08-03T12:50:39.722Z,98452.91
2022-08-03T12:53:07.971Z,98445.63
2022-08-03T12:55:57.200Z,98447.44
2022-08-03T12:58:23.445Z,98437.69
2022-08-03T13:00:56.174Z,98438.13
2022-08-03T13:03:39.037Z,98433.06
2022-08-03T13:06:07.151Z,98432.03
2022-08-03T13:08:34.204Z,98426.75
2022-08-03T13:11:01.244Z,98431.03
2022-08-03T13:13:28.283Z,98427.38
2022-08-03T13:15:55.328Z,98425.53
2022-08-03T13:18:22.383Z,98419.44
2022-08-03T13:20:49.478Z,98423.91
2022-08-03T13:23:22.656Z,98423.91
2022-08-03T13:25:55.818Z,98424.56
2022-08-03T13:28:23.222Z,98424.72
2022-08-03T13:30:50.281Z,98423.75
2022-08-03T13:33:17.383Z,98423.75
2022-08-03T13:35:44.491Z,98419.06
2022-08-03T13:38:11.697Z,98421.72
2022-08-03T13:40:42.165Z,98422.53
2022-08-03T13:43:09.436Z,98416.06
2022-08-03T13:45:36.482Z,98411.59
2022-08-03T13:48:03.557Z,98419.38
2022-08-03T13:50:31.418Z,98406.97
2022-08-03T13:52:58.557Z,98401.66
2022-08-03T13:55:25.632Z,98412.06
2022-08-03T13:58:12.000Z,98403.91
2022-08-03T14:00:39.925Z,98392.34
2022-08-03T14:03:13.876Z,98402.94
2022-08-03T14:05:43.052Z,98393.78
2022-08-03T14:08:10.203Z,98397.09
2022-08-03T14:10:37.438Z,98395.25
2022-08-03T14:13:04.721Z,98392.44
2022-08-03T14:15:31.864Z,98389.59
2022-08-03T14:18:04.471Z,98392.25
2022-08-03T14:20:38.683Z,98399.00
2022-08-03T14:23:14.708Z,98384.75
2022-08-03T14:25:43.415Z,98389.69
2022-08-03T14:28:17.852Z,98374.44
2022-08-03T14:30:44.902Z,98380.16
2022-08-03T14:33:11.943Z,98380.00
2022-08-03T14:35:39.007Z,98372.88
2022-08-03T14:38:06.171Z,98370.84
2022-08-03T14:40:33.306Z,98368.03
2022-08-03T14:43:00.358Z,98363.34
2022-08-03T14:45:27.690Z,98367.63
2022-08-03T14:50:32.848Z,98363.00
2022-08-03T14:50:46.748Z,98369.78
2022-08-03T14:53:17.720Z,98373.03
2022-08-03T14:55:49.702Z,98365.09
2022-08-03T14:58:19.654Z,98356.97
2022-08-03T15:00:48.772Z,98358.41
2022-08-03T15:03:17.388Z,98352.94
2022-08-03T15:05:46.000Z,98348.47
2022-08-03T15:08:13.063Z,98336.69
2022-08-03T15:10:44.469Z,98340.97
2022-08-03T15:13:12.753Z,98334.66
2022-08-03T15:15:39.822Z,98336.94
2022-08-03T15:18:06.891Z,98329.00
2022-08-03T15:20:44.253Z,98331.28
2022-08-03T15:23:12.425Z,98328.25
2022-08-03T15:26:28.009Z,98330.69
2022-08-03T15:28:26.570Z,98329.69
2022-08-03T15:30:53.838Z,98331.94
2022-08-03T15:33:20.906Z,98331.13
2022-08-03T15:35:48.060Z,98325.63
2022-08-03T15:38:15.161Z,98329.50
2022-08-03T15:40:45.437Z,98322.19
2022-08-03T15:43:12.539Z,98325.47
2022-08-03T15:45:41.863Z,98322.81
2022-08-03T15:48:09.170Z,98324.25
2022-08-03T15:50:36.331Z,98320.41
2022-08-03T15:53:05.036Z,98321.22
2022-08-03T15:55:32.216Z,98323.69
2022-08-03T15:59:03.265Z,98324.88
2022-08-03T16:00:46.558Z,98319.38
2022-08-03T16:03:13.676Z,98317.75
2022-08-03T16:05:40.787Z,98321.22
2022-08-03T16:08:13.350Z,98310.19
2022-08-03T16:10:40.947Z,98310.63
2022-08-03T16:13:08.023Z,98310.47
2022-08-03T16:15:38.341Z,98307.97
2022-08-03T16:18:05.993Z,98305.16
2022-08-03T16:20:35.043Z,98304.28
2022-08-03T16:23:09.109Z,98304.59
2022-08-03T16:25:38.809Z,98302.53
2022-08-03T16:28:13.747Z,98297.41
2022-08-03T16:30:41.207Z,98299.97
2022-08-03T16:33:08.375Z,98303.41
2022-08-03T16:35:35.464Z,98297.91
2022-08-03T16:38:06.501Z,98301.38
2022-08-03T16:40:36.534Z,98293.16
2022-08-03T16:43:03.620Z,98284.16
2022-08-03T16:45:30.697Z,98294.09
2022-08-03T16:48:01.454Z,98292.66
2022-08-03T16:50:32.571Z,98294.69
2022-08-03T16:52:59.701Z,98289.72
2022-08-03T16:55:43.324Z,98300.50
2022-08-03T16:58:16.490Z,98294.56
2022-08-03T17:00:44.382Z,98288.69
2022-08-03T17:03:20.546Z,98294.34
2022-08-03T17:05:51.261Z,98290.06
2022-08-03T17:08:26.699Z,98290.22
2022-08-03T17:10:54.474Z,98299.19
2022-08-03T17:13:23.001Z,98298.38
2022-08-03T17:16:06.688Z,98307.28
2022-08-03T17:18:35.059Z,98303.38
2022-08-03T17:21:03.348Z,98303.59
2022-08-03T17:23:34.877Z,98306.44
2022-08-03T17:26:04.200Z,98309.25
2022-08-03T17:28:51.174Z,98312.91
2022-08-03T17:31:23.209Z,98306.97
2022-08-03T17:33:58.142Z,98305.72
2022-08-03T17:36:41.815Z,98303.88
2022-08-03T17:39:14.517Z,98315.47
2022-08-03T17:41:48.949Z,98306.94
2022-08-03T17:44:31.171Z,98316.03
2022-08-03T17:47:04.477Z,98305.66
2022-08-03T17:49:40.022Z,98308.47
2022-08-03T17:52:17.362Z,98307.66
2022-08-03T17:55:56.224Z,98306.34
2022-08-03T17:57:31.853Z,98310.25
2022-08-03T18:00:43.328Z,98315.19
2022-08-03T18:03:20.552Z,98316.00
2022-08-03T18:06:11.748Z,98315.78
2022-08-03T18:08:36.548Z,98317.63
2022-08-03T18:11:14.398Z,98318.44
2022-08-03T18:13:42.174Z,98321.09
2022-08-03T18:16:20.563Z,98321.09
2022-08-03T18:18:53.996Z,98321.09
2022-08-03T18:21:21.916Z,98325.19
2022-08-03T18:23:50.107Z,98322.53
2022-08-03T18:26:18.107Z,98316.06
2022-08-03T18:28:45.189Z,98321.22
2022-08-03T18:31:59.789Z,98320.16
2022-08-03T18:34:33.075Z,98319.69
2022-08-03T18:36:47.661Z,98322.72
2022-08-03T18:39:15.232Z,98322.06
2022-08-03T18:41:46.514Z,98326.75
2022-08-03T18:44:52.553Z,98328.94
2022-08-03T18:47:07.092Z,98328.94
2022-08-03T18:49:38.145Z,98332.75
2022-08-03T18:52:12.223Z,98332.13
2022-08-03T18:54:46.681Z,98327.84
2022-08-03T18:57:30.281Z,98333.31
2022-08-03T19:00:02.326Z,98330.03
2022-08-03T19:02:29.921Z,98336.31
2022-08-03T19:04:58.315Z,98342.63
2022-08-03T19:07:28.823Z,98337.50
2022-08-03T19:10:03.793Z,98341.16
2022-08-03T19:12:37.402Z,98342.34
2022-08-03T19:15:10.448Z,98342.25
2022-08-03T19:17:39.965Z,98351.25
2022-08-03T19:20:09.045Z,98348.25
2022-08-03T19:22:39.974Z,98351.50
2022-08-03T19:25:13.238Z,98349.34
2022-08-03T19:27:40.445Z,98359.50
2022-08-03T19:30:21.939Z,98358.03
2022-08-03T19:32:53.400Z,98358.19
2022-08-03T19:35:51.283Z,98352.28
2022-08-03T19:38:07.689Z,98354.25
2022-08-03T19:40:35.423Z,98363.19
2022-08-03T19:43:02.594Z,98366.84
2022-08-03T19:46:05.473Z,98364.38
2022-08-03T19:48:26.439Z,98369.03
2022-08-03T19:50:54.442Z,98370.06
2022-08-03T19:53:21.649Z,98367.41
2022-08-03T19:55:50.174Z,98360.66
2022-08-03T19:58:17.701Z,98365.28
2022-08-03T20:00:55.936Z,98365.47
2022-08-03T20:03:24.869Z,98362.03
2022-08-03T20:05:54.176Z,98371.22
2022-08-03T20:08:22.199Z,98367.47
2022-08-03T20:10:49.638Z,98360.03
2022-08-03T20:13:19.396Z,98359.03
2022-08-03T20:15:46.799Z,98363.31
2022-08-03T20:18:16.573Z,98364.94
2022-08-03T20:20:44.179Z,98365.59
2022-08-03T20:23:13.996Z,98365.59
2022-08-03T20:25:48.680Z,98369.88
2022-08-03T20:28:26.623Z,98371.94
2022-08-03T20:30:53.971Z,98372.50
2022-08-03T20:33:27.981Z,98377.13
2022-08-03T20:36:08.260Z,98367.13
2022-08-03T20:38:43.728Z,98369.13
2022-08-03T20:41:14.187Z,98375.41
2022-08-03T20:43:41.793Z,98374.78
2022-08-03T20:46:30.861Z,98361.94
2022-08-03T20:48:56.073Z,98369.03
2022-08-03T20:51:50.051Z,98367.41
2022-08-03T20:54:28.974Z,98363.09
2022-08-03T20:56:57.261Z,98362.47
2022-08-03T20:59:36.578Z,98358.22
2022-08-03T21:02:05.891Z,98365.47
2022-08-03T21:04:32.977Z,98363.84
2022-08-03T21:07:01.039Z,98365.69
2022-08-03T21:09:39.714Z,98367.50
2022-08-03T21:12:07.745Z,98367.66
2022-08-03T21:14:35.638Z,98369.50
2022-08-03T21:17:09.383Z,98370.50
2022-08-03T21:19:51.854Z,98369.84
2022-08-03T21:22:19.612Z,98375.94
2022-08-03T21:24:49.412Z,98377.78
2022-08-03T21:27:19.980Z,98372.69
2022-08-03T21:29:53.220Z,98370.03
2022-08-03T21:32:32.911Z,98377.16
2022-08-03T21:35:00.425Z,98376.69
2022-08-03T21:37:27.473Z,98373.25
2022-08-03T21:39:54.666Z,98376.69
2022-08-03T21:42:23.822Z,98372.59
2022-08-03T21:44:51.264Z,98378.69
2022-08-03T21:47:18.408Z,98387.63
2022-08-03T21:50:05.846Z,98370.94
2022-08-03T21:52:32.579Z,98381.69
2022-08-03T21:54:59.630Z,98384.31
2022-08-03T21:57:26.728Z,98377.41
2022-08-03T21:59:54.053Z,98382.03
2022-08-03T22:02:24.186Z,98376.75
2022-08-03T22:04:57.188Z,98374.94
2022-08-03T22:07:24.635Z,98382.22
2022-08-03T22:09:52.236Z,98384.03
2022-08-03T22:12:19.381Z,98371.03
2022-08-03T22:14:46.433Z,98374.50
2022-08-03T22:17:13.824Z,98378.97
2022-08-03T22:20:00.928Z,98373.84
2022-08-03T22:22:28.484Z,98376.47
2022-08-03T22:24:55.555Z,98379.31
2022-08-03T22:27:32.223Z,98385.41
2022-08-03T22:29:59.311Z,98389.22
2022-08-03T22:32:26.974Z,98384.94
2022-08-03T22:34:54.132Z,98392.06
2022-08-03T22:37:21.450Z,98395.66
2022-08-03T22:39:49.243Z,98394.69
2022-08-03T22:42:16.380Z,98393.88
2022-08-03T22:44:43.451Z,98397.50
2022-08-03T22:47:10.543Z,98401.13
2022-08-03T22:49:37.700Z,98395.84
2022-08-03T22:52:04.806Z,98400.31
2022-08-03T22:54:31.867Z,98397.69
2022-08-03T22:56:58.944Z,98399.66
2022-08-03T22:59:40.544Z,98395.25
2022-08-03T23:02:20.600Z,98397.22
2022-08-03T23:04:48.514Z,98400.69
2022-08-03T23:07:15.703Z,98406.94
2022-08-03T23:09:42.751Z,98406.94
2022-08-03T23:12:09.795Z,98407.09
2022-08-03T23:14:36.847Z,98406.28
2022-08-03T23:17:03.937Z,98403.63
2022-08-03T23:19:34.360Z,98406.28
2022-08-03T23:22:29.293Z,98406.47
2022-08-03T23:24:55.807Z,98407.63
2022-08-03T23:27:23.058Z,98409.28
2022-08-03T23:29:50.329Z,98407.63
2022-08-03T23:32:17.378Z,98408.63
2022-08-03T23:35:03.450Z,98412.09
2022-08-03T23:37:30.497Z,98408.84
2022-08-03T23:39:57.548Z,98405.34
2022-08-03T23:42:24.607Z,98410.81
2022-08-03T23:44:51.661Z,98417.72
2022-08-03T23:47:18.737Z,98415.28
2022-08-03T23:49:45.800Z,98405.72
2022-08-03T23:52:12.855Z,98409.19
2022-08-03T23:54:39.948Z,98406.69
2022-08-03T23:57:07.010Z,98410.16
2022-08-03T23:59:34.063Z,98411.97
